LAX weather

Los Angeles International Airport
Los Angeles, California, United States

Public forecast

Using degrees Fahrenheit for public forecast. Weather courtesy of forecast.io.

METAR (pilot weather report)

Retrieved 2019/04/21 11:53 UTC (41 minutes ago):

KLAX 211153Z 25005KT 10SM FEW023 BKN032 BKN043 13/10 A3000 RMK AO2 SLP158 T01330100 10144 20133 56002

TAF (pilot weather forecast)

Retrieved 2019/04/21 12:28 UTC (6 minutes ago):

TAF KLAX 211125Z 2112/2218 26008KT P6SM BKN020 OVC040 FM211900 25012KT P6SM SCT040 FM220400 25006KT P6SM SCT025 FM220700 VRB03KT P6SM SKC FM221100 VRB03KT P6SM BKN015